Time;durP1;ratioP1;P1;durP2;ratioP2;P2;SDS_P1;SDS_P2;PMS_P1;PMS_P2;Temp;Humidity;BMP_temperature;BMP_pressure;BME280_temperature;BME280_humidity;BME280_pressure;Samples;Min_cycle;Max_cycle;Signal;HPM_P1;HPM_P2
2023/10/25 00:02:25;;;;;;;33.65;7.50;;;21.80;92.90;;;;;;4835930;29;20036;-74
2023/10/25 00:04:56;;;;;;;34.38;7.55;;;21.80;92.80;;;;;;4828812;29;20109;-73
2023/10/25 00:07:22;;;;;;;35.20;7.93;;;21.80;92.00;;;;;;4825786;29;20022;-75
2023/10/25 00:09:48;;;;;;;33.63;6.80;;;21.80;92.30;;;;;;4825307;29;20061;-75
2023/10/25 00:12:14;;;;;;;34.83;7.25;;;21.80;92.10;;;;;;4823165;29;20095;-77
2023/10/25 00:14:41;;;;;;;28.98;7.38;;;21.70;92.10;;;;;;4813113;29;20034;-76
2023/10/25 00:17:07;;;;;;;28.63;6.32;;;21.60;92.50;;;;;;4827673;29;20491;-76
2023/10/25 00:19:33;;;;;;;27.80;7.03;;;21.70;91.80;;;;;;4829222;29;20046;-78
2023/10/25 00:21:59;;;;;;;36.05;7.93;;;21.60;91.70;;;;;;4825303;29;20022;-76
2023/10/25 00:24:25;;;;;;;33.65;7.18;;;21.60;91.80;;;;;;4826146;29;20037;-75
2023/10/25 00:26:51;;;;;;;40.33;8.30;;;21.60;91.80;;;;;;4838229;29;20434;-75
2023/10/25 00:29:17;;;;;;;32.97;7.10;;;21.60;91.80;;;;;;4829010;29;20108;-74
2023/10/25 00:31:43;;;;;;;33.40;7.90;;;21.60;91.90;;;;;;4837912;29;20029;-77
2023/10/25 00:34:09;;;;;;;29.52;7.03;;;21.50;92.80;;;;;;4836582;29;20046;-75
2023/10/25 00:36:36;;;;;;;37.33;7.70;;;21.40;92.80;;;;;;4831949;29;20026;-74
2023/10/25 00:39:01;;;;;;;29.85;7.80;;;21.30;92.10;;;;;;4811336;29;20030;-72
2023/10/25 00:41:27;;;;;;;33.20;7.43;;;21.20;92.50;;;;;;4837493;29;20037;-78
2023/10/25 00:43:54;;;;;;;31.75;7.65;;;21.10;92.10;;;;;;4826815;29;20053;-73
2023/10/25 00:46:23;;;;;;;30.33;6.68;;;21.10;92.10;;;;;;4825909;29;20026;-75
2023/10/25 00:48:51;;;;;;;32.67;7.65;;;21.10;92.30;;;;;;4828662;29;20034;-78
2023/10/25 00:51:19;;;;;;;29.33;7.88;;;21.00;92.70;;;;;;4837630;29;20031;-73
2023/10/25 00:53:50;;;;;;;32.42;6.78;;;20.90;90.50;;;;;;4829039;29;20034;-76
2023/10/25 00:56:17;;;;;;;41.22;7.65;;;20.90;95.70;;;;;;4826822;29;20337;-75
2023/10/25 00:58:45;;;;;;;27.48;7.03;;;20.80;99.30;;;;;;4832533;29;20029;-75
2023/10/25 01:01:13;;;;;;;38.45;8.18;;;20.80;99.40;;;;;;4827595;29;20019;-77
2023/10/25 01:03:40;;;;;;;33.28;6.55;;;20.70;99.90;;;;;;4827885;29;20057;-75
2023/10/25 01:06:07;;;;;;;27.83;6.10;;;20.60;99.80;;;;;;4823349;29;20031;-75
2023/10/25 01:08:33;;;;;;;25.92;6.40;;;20.60;99.90;;;;;;4810674;29;20047;-74
2023/10/25 01:10:59;;;;;;;41.10;7.43;;;20.60;99.90;;;;;;4831591;29;20105;-76
2023/10/25 01:13:25;;;;;;;26.10;6.32;;;20.50;99.70;;;;;;4813723;29;20057;-76
2023/10/25 01:15:51;;;;;;;33.38;7.53;;;20.50;99.10;;;;;;4825558;29;20038;-74
2023/10/25 01:18:17;;;;;;;37.22;7.07;;;20.50;99.10;;;;;;4827741;29;20023;-74
2023/10/25 01:20:44;;;;;;;33.30;7.60;;;20.50;98.70;;;;;;4825359;29;20502;-74
2023/10/25 01:23:10;;;;;;;31.73;6.65;;;20.50;98.50;;;;;;4816114;29;20042;-76
2023/10/25 01:25:38;;;;;;;44.97;7.82;;;;;;;;;;4812411;29;20040;-74
2023/10/25 01:28:04;;;;;;;29.48;6.15;;;19.90;97.20;;;;;;4828794;29;20031;-74
2023/10/25 01:30:32;;;;;;;36.78;7.32;;;;;;;;;;4823745;29;20034;-75
2023/10/25 01:33:01;;;;;;;26.95;6.65;;;;;;;;;;4793980;29;20053;-76
2023/10/25 01:35:28;;;;;;;31.77;7.00;;;;;;;;;;4821976;29;20398;-75
2023/10/25 01:37:55;;;;;;;36.60;7.70;;;20.00;99.90;;;;;;4812283;29;20061;-74
2023/10/25 01:40:21;;;;;;;27.40;7.38;;;19.80;91.10;;;;;;4813253;29;20034;-74
2023/10/25 01:42:47;;;;;;;35.08;7.30;;;19.70;99.90;;;;;;4808815;29;20442;-76
2023/10/25 01:45:14;;;;;;;33.17;6.15;;;19.50;98.60;;;;;;4831107;29;20037;-76
2023/10/25 01:47:45;;;;;;;29.95;6.70;;;19.60;93.20;;;;;;4812476;29;20033;-77
2023/10/25 01:50:10;;;;;;;38.00;8.02;;;19.50;93.30;;;;;;4830960;29;20030;-76
2023/10/25 01:52:36;;;;;;;39.10;7.45;;;19.50;93.10;;;;;;4823009;29;20044;-75
2023/10/25 01:55:03;;;;;;;30.00;6.72;;;19.60;93.60;;;;;;4823952;29;20057;-76
2023/10/25 01:57:29;;;;;;;25.58;6.30;;;19.60;93.60;;;;;;4813861;29;20022;-76
2023/10/25 01:59:55;;;;;;;21.02;6.35;;;19.60;93.60;;;;;;4822663;29;20034;-78
2023/10/25 02:02:20;;;;;;;32.22;8.00;;;19.60;93.80;;;;;;4810743;29;20082;-75
2023/10/25 02:04:46;;;;;;;24.42;6.68;;;19.60;94.10;;;;;;4793629;29;20042;-75
2023/10/25 02:07:12;;;;;;;34.13;6.85;;;19.50;94.50;;;;;;4795912;29;20090;-75
2023/10/25 02:09:38;;;;;;;33.28;7.72;;;19.50;94.40;;;;;;4828123;29;20129;-75
2023/10/25 02:12:06;;;;;;;24.52;6.10;;;19.40;94.10;;;;;;4828723;29;20026;-75
2023/10/25 02:14:32;;;;;;;28.55;6.35;;;19.50;94.00;;;;;;4825185;29;20050;-75
2023/10/25 02:16:58;;;;;;;28.45;8.13;;;19.30;93.90;;;;;;4825159;29;20062;-76
2023/10/25 02:19:24;;;;;;;31.05;6.43;;;19.40;99.90;;;;;;4811521;29;20084;-76
2023/10/25 02:21:50;;;;;;;29.65;5.55;;;19.60;99.80;;;;;;4818858;29;20202;-75
2023/10/25 02:24:16;;;;;;;22.17;6.82;;;19.50;99.60;;;;;;4824679;29;20395;-77
2023/10/25 02:26:44;;;;;;;27.95;6.97;;;19.60;99.60;;;;;;4816132;29;20066;-76
2023/10/25 02:29:11;;;;;;;29.60;7.50;;;19.60;99.90;;;;;;4813238;29;20082;-77
2023/10/25 02:31:37;;;;;;;30.23;5.47;;;19.60;99.90;;;;;;4824095;29;20026;-75
2023/10/25 02:34:03;;;;;;;21.45;5.07;;;19.60;99.90;;;;;;4836899;29;20078;-76
2023/10/25 02:36:30;;;;;;;19.70;4.85;;;19.70;99.90;;;;;;4818995;29;20097;-76
2023/10/25 02:38:57;;;;;;;18.83;3.65;;;19.80;99.90;;;;;;4828137;29;20117;-75
2023/10/25 02:41:23;;;;;;;19.25;3.38;;;20.00;99.90;;;;;;4826869;29;20031;-75
2023/10/25 02:43:53;;;;;;;24.40;3.85;;;20.00;99.90;;;;;;4810497;29;20039;-77
2023/10/25 02:46:20;;;;;;;12.63;3.45;;;20.10;99.90;;;;;;4829121;29;20034;-76
2023/10/25 02:48:46;;;;;;;15.98;3.78;;;20.10;99.90;;;;;;4828983;29;20030;-75
2023/10/25 02:51:12;;;;;;;16.42;3.47;;;20.10;99.90;;;;;;4811726;29;20037;-75
2023/10/25 02:53:38;;;;;;;16.45;3.40;;;20.00;99.90;;;;;;4810834;29;20129;-75
2023/10/25 02:56:06;;;;;;;15.75;3.72;;;19.90;99.90;;;;;;4823743;29;20035;-75
2023/10/25 02:58:32;;;;;;;16.77;3.78;;;19.80;99.90;;;;;;4817642;29;20029;-75
2023/10/25 03:00:59;;;;;;;14.85;3.72;;;19.80;99.90;;;;;;4828501;29;20035;-76
2023/10/25 03:03:32;;;;;;;15.85;4.35;;;19.80;99.90;;;;;;4828162;29;20027;-77
2023/10/25 03:05:58;;;;;;;20.67;3.40;;;19.60;99.90;;;;;;4824900;29;20479;-75
2023/10/25 03:08:27;;;;;;;11.20;2.80;;;19.70;99.90;;;;;;4823307;29;20044;-76
2023/10/25 03:10:54;;;;;;;11.75;3.30;;;19.60;99.50;;;;;;4842330;29;20033;-76
2023/10/25 03:13:20;;;;;;;11.73;2.60;;;19.50;99.90;;;;;;4825415;29;20121;-76
2023/10/25 03:15:46;;;;;;;12.85;2.67;;;19.50;99.90;;;;;;4842207;29;20449;-76
2023/10/25 03:18:12;;;;;;;8.88;2.20;;;19.40;99.90;;;;;;4825578;29;20026;-76
2023/10/25 03:20:38;;;;;;;13.85;2.38;;;19.20;99.90;;;;;;4841764;29;20028;-75
2023/10/25 03:23:04;;;;;;;11.40;2.47;;;19.00;99.90;;;;;;4825432;29;20045;-76
2023/10/25 03:25:30;;;;;;;16.05;2.85;;;;;;;;;;4841835;29;20026;-77
2023/10/25 03:27:56;;;;;;;11.70;3.05;;;18.70;99.90;;;;;;4842079;29;20022;-77
2023/10/25 03:30:22;;;;;;;11.13;2.35;;;18.50;99.90;;;;;;4841687;29;20551;-76
2023/10/25 03:32:50;;;;;;;6.63;2.17;;;18.40;99.90;;;;;;4841397;29;20390;-76
2023/10/25 03:35:16;;;;;;;12.60;2.20;;;18.30;99.90;;;;;;4841531;29;20030;-75
2023/10/25 03:37:42;;;;;;;7.38;1.73;;;18.30;99.90;;;;;;4841012;29;20139;-76
2023/10/25 03:40:11;;;;;;;8.77;2.65;;;18.20;99.90;;;;;;4825428;29;20038;-76
2023/10/25 03:42:37;;;;;;;6.20;2.30;;;18.20;99.90;;;;;;4825116;29;20030;-77
2023/10/25 03:45:06;;;;;;;8.00;1.48;;;18.10;99.90;;;;;;4841720;29;20491;-76
2023/10/25 03:47:37;;;;;;;12.05;2.78;;;18.00;99.90;;;;;;4843155;29;20038;-76
2023/10/25 03:50:04;;;;;;;4.50;1.52;;;17.90;99.90;;;;;;4859109;29;20033;-76
2023/10/25 03:52:33;;;;;;;9.93;1.60;;;17.80;99.90;;;;;;4823699;29;20069;-76
2023/10/25 03:54:59;;;;;;;4.88;1.27;;;17.90;99.90;;;;;;4822981;29;20049;-75
2023/10/25 03:57:26;;;;;;;6.72;1.30;;;17.80;99.90;;;;;;4831017;29;20390;-75
2023/10/25 03:59:52;;;;;;;8.25;1.90;;;17.80;99.90;;;;;;4832295;29;20081;-75
2023/10/25 04:02:18;;;;;;;5.03;1.75;;;17.80;99.90;;;;;;4837464;29;20483;-75
2023/10/25 04:04:44;;;;;;;5.25;1.55;;;17.80;99.90;;;;;;4839710;29;20042;-76
2023/10/25 04:07:12;;;;;;;5.93;2.22;;;17.80;99.90;;;;;;4841819;29;20026;-76
2023/10/25 04:09:38;;;;;;;6.88;1.65;;;17.80;99.90;;;;;;4840641;29;20082;-76
2023/10/25 04:12:04;;;;;;;8.43;1.88;;;17.80;99.90;;;;;;4841376;29;20053;-76
2023/10/25 04:14:30;;;;;;;7.85;2.15;;;17.80;99.90;;;;;;4841015;29;20046;-76
2023/10/25 04:16:55;;;;;;;7.85;1.45;;;17.80;99.90;;;;;;4829127;29;20030;-76
2023/10/25 04:19:21;;;;;;;6.78;1.80;;;17.70;99.90;;;;;;4838241;29;20497;-75
2023/10/25 04:21:47;;;;;;;6.60;1.63;;;17.70;99.90;;;;;;4838519;29;20471;-77
2023/10/25 04:24:13;;;;;;;6.47;1.63;;;17.70;99.90;;;;;;4840865;29;20042;-76
2023/10/25 04:26:39;;;;;;;3.53;1.52;;;17.70;99.90;;;;;;4841499;29;20022;-76
2023/10/25 04:29:05;;;;;;;5.47;2.15;;;17.70;99.90;;;;;;4841092;29;20054;-75
2023/10/25 04:31:31;;;;;;;4.72;2.00;;;17.70;99.90;;;;;;4824844;29;20033;-76
2023/10/25 04:33:59;;;;;;;7.38;2.25;;;17.70;99.90;;;;;;4850381;29;20128;-76
2023/10/25 04:36:24;;;;;;;4.90;1.58;;;17.70;99.90;;;;;;4843565;29;20485;-76
2023/10/25 04:38:50;;;;;;;6.72;2.10;;;17.60;99.90;;;;;;4841089;29;20030;-76
2023/10/25 04:41:16;;;;;;;8.02;1.58;;;17.60;99.90;;;;;;4840803;29;20026;-77
2023/10/25 04:43:44;;;;;;;5.18;1.92;;;17.60;99.90;;;;;;4841128;29;20045;-76
2023/10/25 04:46:15;;;;;;;6.82;1.98;;;17.50;99.90;;;;;;4843346;29;20022;-75
2023/10/25 04:48:41;;;;;;;7.32;1.75;;;17.50;99.90;;;;;;4850126;29;20037;-75
2023/10/25 04:51:07;;;;;;;9.55;1.80;;;17.50;99.90;;;;;;4842104;29;20032;-75
2023/10/25 04:53:33;;;;;;;10.00;4.05;;;17.50;99.90;;;;;;4842479;29;20109;-75
2023/10/25 04:56:01;;;;;;;7.28;2.70;;;17.50;99.90;;;;;;4841090;29;20453;-76
2023/10/25 04:58:27;;;;;;;11.27;2.30;;;17.50;99.90;;;;;;4844832;29;20112;-76
2023/10/25 05:00:53;;;;;;;10.95;2.25;;;17.40;99.90;;;;;;4841465;29;20033;-75
2023/10/25 05:03:19;;;;;;;3.67;1.85;;;17.50;99.90;;;;;;4840265;29;20029;-75
2023/10/25 05:05:46;;;;;;;8.30;2.45;;;17.30;99.90;;;;;;4840384;29;20026;-76
2023/10/25 05:08:12;;;;;;;9.00;2.50;;;17.30;99.90;;;;;;4846279;29;20546;-76
2023/10/25 05:10:43;;;;;;;11.05;2.78;;;17.30;99.90;;;;;;4843763;29;20090;-76
2023/10/25 05:13:13;;;;;;;9.32;2.67;;;17.30;99.90;;;;;;4843206;29;20033;-76
2023/10/25 05:15:39;;;;;;;10.73;2.85;;;17.30;99.90;;;;;;4843444;29;20506;-75
2023/10/25 05:18:06;;;;;;;11.98;3.30;;;17.30;99.90;;;;;;4844237;29;20032;-78
2023/10/25 05:20:32;;;;;;;9.48;2.72;;;17.30;99.90;;;;;;4827270;29;20034;-76
2023/10/25 05:23:02;;;;;;;12.55;3.00;;;17.30;99.90;;;;;;4831920;29;20022;-74
2023/10/25 05:25:28;;;;;;;8.95;2.80;;;17.30;99.90;;;;;;4844288;29;20102;-76
2023/10/25 05:27:54;;;;;;;7.93;3.05;;;17.30;99.90;;;;;;4850758;29;20037;-75
2023/10/25 05:30:21;;;;;;;10.43;3.20;;;17.30;99.90;;;;;;4831265;29;20506;-75
2023/10/25 05:32:52;;;;;;;7.65;3.08;;;17.40;99.90;;;;;;4839727;29;20042;-75
2023/10/25 05:35:18;;;;;;;14.85;4.03;;;17.40;99.90;;;;;;4831282;29;20502;-74
2023/10/25 05:37:44;;;;;;;11.45;3.67;;;17.40;99.90;;;;;;4842196;29;20044;-75
2023/10/25 05:40:11;;;;;;;9.82;3.47;;;17.50;99.90;;;;;;4843913;29;20391;-75
2023/10/25 05:42:47;;;;;;;11.02;3.90;;;17.60;99.90;;;;;;4843558;29;20065;-76
2023/10/25 05:45:13;;;;;;;9.13;4.00;;;17.70;99.90;;;;;;4843875;29;20033;-75
2023/10/25 05:47:39;;;;;;;10.52;4.45;;;17.80;99.90;;;;;;4843465;29;20026;-75
2023/10/25 05:50:06;;;;;;;6.30;3.08;;;17.90;99.90;;;;;;4843774;29;20053;-76
2023/10/25 05:52:33;;;;;;;5.53;2.38;;;17.90;99.90;;;;;;4843144;29;20026;-76
2023/10/25 05:54:59;;;;;;;8.68;2.13;;;18.00;99.90;;;;;;4843252;29;20034;-76
2023/10/25 05:57:25;;;;;;;5.78;1.80;;;18.20;99.90;;;;;;4843901;29;20014;-75
2023/10/25 05:59:52;;;;;;;6.07;1.88;;;18.20;99.90;;;;;;4843307;29;20044;-75
2023/10/25 06:02:22;;;;;;;6.25;1.88;;;18.20;99.90;;;;;;4843262;29;20026;-76
2023/10/25 06:04:49;;;;;;;6.90;1.50;;;18.20;99.90;;;;;;4826999;29;20449;-76
2023/10/25 06:07:15;;;;;;;6.85;1.83;;;18.30;99.90;;;;;;4843139;29;20406;-75
2023/10/25 06:09:42;;;;;;;7.03;2.00;;;18.30;99.90;;;;;;4843026;29;20118;-77
2023/10/25 06:12:09;;;;;;;7.00;1.95;;;18.40;99.90;;;;;;4842983;29;20109;-76
2023/10/25 06:14:35;;;;;;;5.25;1.50;;;18.40;99.90;;;;;;4843177;29;20091;-76
2023/10/25 06:17:01;;;;;;;6.53;1.63;;;18.50;99.90;;;;;;4842767;29;20026;-75
2023/10/25 06:19:27;;;;;;;4.80;2.13;;;18.60;99.90;;;;;;4842517;29;20052;-76
2023/10/25 06:21:54;;;;;;;7.82;2.55;;;18.80;99.90;;;;;;4854991;29;20018;-76
2023/10/25 06:24:20;;;;;;;8.35;3.10;;;18.90;99.90;;;;;;4843161;29;20087;-76
2023/10/25 06:26:46;;;;;;;7.50;2.08;;;19.00;99.90;;;;;;4826404;29;20022;-76
2023/10/25 06:29:13;;;;;;;5.78;1.80;;;19.20;99.90;;;;;;4826534;29;20037;-78
2023/10/25 06:31:38;;;;;;;7.45;2.67;;;19.20;99.90;;;;;;4842578;29;20105;-75
2023/10/25 06:34:04;;;;;;;6.97;2.55;;;19.30;99.90;;;;;;4843317;29;20118;-75
2023/10/25 06:36:34;;;;;;;7.93;3.63;;;19.50;99.90;;;;;;4846610;29;20461;-75
2023/10/25 06:39:04;;;;;;;14.32;4.00;;;19.40;99.90;;;;;;4850534;29;20554;-76
2023/10/25 06:41:31;;;;;;;10.63;3.72;;;19.50;99.90;;;;;;4842776;29;20137;-75
2023/10/25 06:44:04;;;;;;;12.00;2.58;;;19.50;99.90;;;;;;4838410;29;20037;-76
2023/10/25 06:46:35;;;;;;;5.47;2.38;;;19.70;99.90;;;;;;4830736;29;20505;-75
2023/10/25 06:49:01;;;;;;;4.70;1.63;;;19.60;99.90;;;;;;4811402;29;20048;-75
2023/10/25 06:51:27;;;;;;;8.60;1.95;;;19.80;99.90;;;;;;4842429;29;20025;-76
2023/10/25 06:53:54;;;;;;;8.63;2.50;;;20.00;99.90;;;;;;4842203;29;20042;-76
2023/10/25 06:56:20;;;;;;;7.10;2.92;;;20.00;99.90;;;;;;4842581;29;20168;-75
2023/10/25 06:58:46;;;;;;;7.68;3.15;;;20.10;99.90;;;;;;4842345;29;20112;-76
2023/10/25 07:01:14;;;;;;;6.55;2.03;;;20.20;99.90;;;;;;4842169;29;20022;-75
2023/10/25 07:03:45;;;;;;;8.85;3.40;;;20.30;99.90;;;;;;4825494;29;20098;-75
2023/10/25 07:06:12;;;;;;;5.72;1.58;;;20.50;99.90;;;;;;4842160;29;20037;-78
2023/10/25 07:08:38;;;;;;;5.82;2.08;;;20.40;99.90;;;;;;4842007;29;20053;-75
2023/10/25 07:11:04;;;;;;;5.45;1.60;;;20.60;99.90;;;;;;4842138;29;20073;-76
2023/10/25 07:13:30;;;;;;;6.97;2.17;;;20.70;99.90;;;;;;4843196;29;20134;-76
2023/10/25 07:15:56;;;;;;;8.95;3.15;;;20.80;99.90;;;;;;4852834;29;20037;-75
2023/10/25 07:18:25;;;;;;;8.90;1.90;;;20.80;99.90;;;;;;4842120;29;20026;-76
2023/10/25 07:20:51;;;;;;;7.65;3.17;;;20.90;99.90;;;;;;4841875;29;20566;-75
2023/10/25 07:23:17;;;;;;;10.32;1.60;;;20.90;99.90;;;;;;4827648;29;20038;-75
2023/10/25 07:25:44;;;;;;;4.35;1.63;;;21.00;99.90;;;;;;4835810;29;20029;-76
2023/10/25 07:28:10;;;;;;;3.28;1.10;;;21.10;99.90;;;;;;4841674;29;20044;-76
2023/10/25 07:30:37;;;;;;;8.27;1.58;;;21.20;99.90;;;;;;4841685;29;20061;-74
2023/10/25 07:33:03;;;;;;;5.03;1.50;;;21.30;99.90;;;;;;4841256;29;20041;-74
2023/10/25 07:35:29;;;;;;;6.28;2.03;;;21.20;99.40;;;;;;4841807;29;20029;-74
2023/10/25 07:37:55;;;;;;;8.18;1.83;;;21.30;99.70;;;;;;4841328;29;20189;-75
2023/10/25 07:40:21;;;;;;;5.72;1.42;;;21.40;99.90;;;;;;4850523;29;20069;-75
2023/10/25 07:42:46;;;;;;;5.97;1.38;;;21.40;99.30;;;;;;4845026;29;20033;-75
2023/10/25 07:45:13;;;;;;;3.17;1.17;;;21.50;99.40;;;;;;4841580;29;20041;-74
2023/10/25 07:47:39;;;;;;;5.80;1.38;;;21.70;99.30;;;;;;4841903;29;20049;-75
2023/10/25 07:50:06;;;;;;;6.57;1.27;;;21.70;97.90;;;;;;4841544;29;20041;-75
2023/10/25 07:52:34;;;;;;;4.32;1.48;;;21.90;97.90;;;;;;4841522;29;20100;-74
2023/10/25 07:54:59;;;;;;;3.70;1.52;;;21.90;98.00;;;;;;4841268;29;20038;-75
2023/10/25 07:57:29;;;;;;;3.25;1.08;;;22.00;97.30;;;;;;4841384;29;20720;-73
2023/10/25 07:59:55;;;;;;;5.13;1.40;;;22.00;96.80;;;;;;4841388;29;20394;-74
2023/10/25 08:02:26;;;;;;;8.48;2.08;;;22.00;96.90;;;;;;4809574;29;20022;-75
2023/10/25 08:04:52;;;;;;;3.80;2.03;;;22.10;95.90;;;;;;4819988;29;20072;-74
2023/10/25 08:07:17;;;;;;;3.45;1.52;;;22.20;95.50;;;;;;4830265;29;20477;-75
2023/10/25 08:09:46;;;;;;;2.70;1.40;;;22.30;96.10;;;;;;4833158;29;20106;-76
2023/10/25 08:12:12;;;;;;;5.82;1.42;;;22.50;99.80;;;;;;4852816;29;20033;-76
2023/10/25 08:14:40;;;;;;;3.95;1.42;;;22.40;95.20;;;;;;4825398;29;20046;-76
2023/10/25 08:17:06;;;;;;;4.72;1.23;;;22.60;95.00;;;;;;4840997;29;20081;-74
2023/10/25 08:19:32;;;;;;;4.40;1.27;;;22.70;93.60;;;;;;4841137;29;20082;-76
2023/10/25 08:21:59;;;;;;;3.15;1.15;;;22.70;92.10;;;;;;4841033;29;20034;-75
2023/10/25 08:24:24;;;;;;;3.33;0.82;;;22.60;92.30;;;;;;4852076;29;20045;-75
2023/10/25 08:26:52;;;;;;;6.47;1.08;;;22.50;91.20;;;;;;4842454;29;20105;-76
2023/10/25 08:29:18;;;;;;;6.25;1.33;;;22.30;91.80;;;;;;4841145;29;20513;-75
2023/10/25 08:31:47;;;;;;;3.38;1.08;;;22.20;92.30;;;;;;4841201;29;20075;-74
2023/10/25 08:34:13;;;;;;;3.10;1.05;;;22.10;91.80;;;;;;4841173;29;20045;-76
2023/10/25 08:36:39;;;;;;;3.67;1.10;;;22.10;91.80;;;;;;4840815;29;20032;-74
2023/10/25 08:39:05;;;;;;;4.90;1.17;;;22.10;93.00;;;;;;4841022;29;20493;-76
2023/10/25 08:41:33;;;;;;;8.23;1.58;;;22.00;92.20;;;;;;4858864;29;20089;-75
2023/10/25 08:43:59;;;;;;;9.85;1.67;;;22.10;92.30;;;;;;4849567;29;20033;-77
2023/10/25 08:46:27;;;;;;;3.22;0.90;;;22.20;91.80;;;;;;4856938;29;20022;-75
2023/10/25 08:48:55;;;;;;;5.32;1.27;;;22.20;91.20;;;;;;4844377;29;20065;-75
2023/10/25 08:51:22;;;;;;;4.93;1.02;;;22.40;90.80;;;;;;4844574;29;20057;-75
2023/10/25 08:53:50;;;;;;;2.17;0.88;;;22.60;91.00;;;;;;4844723;29;20073;-75
2023/10/25 08:56:16;;;;;;;3.17;1.00;;;22.70;90.20;;;;;;4844902;29;20023;-75
2023/10/25 08:58:42;;;;;;;3.40;1.25;;;;;;;;;;4844655;29;20026;-76
2023/10/25 09:01:10;;;;;;;7.80;1.15;;;23.00;89.70;;;;;;4844790;29;20471;-75
2023/10/25 09:03:40;;;;;;;3.75;0.80;;;23.10;90.60;;;;;;4844501;29;20120;-74
2023/10/25 09:06:07;;;;;;;7.07;1.55;;;;;;;;;;4844255;29;20382;-76
2023/10/25 09:08:37;;;;;;;1.80;0.60;;;;;;;;;;4845983;29;20052;-75
2023/10/25 09:11:13;;;;;;;3.08;0.98;;;23.60;99.90;;;;;;4854886;29;20466;-76
2023/10/25 09:13:45;;;;;;;1.55;1.02;;;;;;;;;;4846838;29;20049;-76
2023/10/25 09:16:12;;;;;;;5.97;1.42;;;;;;;;;;4853047;29;20478;-75
2023/10/25 09:18:39;;;;;;;1.88;0.85;;;24.20;83.70;;;;;;4843866;29;20054;-77
2023/10/25 09:21:07;;;;;;;1.88;0.68;;;24.30;83.70;;;;;;4844459;29;20416;-76
2023/10/25 09:23:36;;;;;;;1.30;0.60;;;24.30;81.70;;;;;;4844023;29;20026;-76
2023/10/25 09:26:12;;;;;;;6.07;1.25;;;24.20;81.10;;;;;;4843985;29;20057;-76
2023/10/25 09:28:38;;;;;;;3.22;0.90;;;24.20;81.10;;;;;;4843613;29;20026;-76
2023/10/25 09:31:23;;;;;;;3.13;1.00;;;23.90;80.30;;;;;;4827578;29;20053;-76
2023/10/25 09:33:50;;;;;;;3.33;1.05;;;23.60;81.20;;;;;;4812205;29;20486;-76
2023/10/25 09:36:19;;;;;;;3.95;1.00;;;23.70;81.80;;;;;;4843812;29;20078;-76
2023/10/25 09:38:45;;;;;;;4.60;1.23;;;23.70;80.00;;;;;;4852449;29;20037;-75
2023/10/25 09:41:16;;;;;;;6.18;1.23;;;23.70;82.30;;;;;;4846997;29;20030;-76
2023/10/25 09:43:49;;;;;;;2.22;1.27;;;23.70;84.20;;;;;;4843813;29;20034;-74
2023/10/25 09:46:17;;;;;;;8.55;1.13;;;23.50;87.80;;;;;;4843680;29;20090;-74
2023/10/25 09:49:01;;;;;;;10.15;1.52;;;23.60;87.60;;;;;;4843859;29;20030;-75
2023/10/25 09:51:33;;;;;;;2.75;0.98;;;23.40;88.80;;;;;;4843359;29;20026;-75
2023/10/25 09:54:13;;;;;;;1.92;0.50;;;23.20;88.00;;;;;;4827013;29;20053;-75
2023/10/25 09:56:40;;;;;;;1.42;0.77;;;23.10;88.80;;;;;;4826736;29;20097;-75
2023/10/25 09:59:12;;;;;;;1.90;0.65;;;23.20;89.60;;;;;;4843067;29;20026;-75
2023/10/25 10:01:39;;;;;;;3.05;1.17;;;23.30;89.10;;;;;;4843540;29;20065;-75
2023/10/25 10:04:19;;;;;;;5.40;0.90;;;23.20;89.50;;;;;;4826548;29;20117;-75
2023/10/25 10:07:09;;;;;;;3.30;0.77;;;23.20;89.10;;;;;;4843584;29;20034;-75
2023/10/25 10:09:52;;;;;;;1.30;0.80;;;23.20;90.00;;;;;;4814893;29;20061;-75
2023/10/25 10:12:19;;;;;;;2.00;0.80;;;23.00;90.10;;;;;;4841025;29;20057;-75
2023/10/25 10:14:48;;;;;;;8.77;1.38;;;23.20;90.20;;;;;;4811930;29;20574;-76
2023/10/25 10:17:16;;;;;;;3.47;1.42;;;23.20;90.00;;;;;;4843190;29;20090;-74
2023/10/25 10:19:50;;;;;;;9.65;1.65;;;23.30;89.00;;;;;;4843170;29;20018;-76
2023/10/25 10:22:18;;;;;;;4.07;1.10;;;23.40;89.10;;;;;;4838504;29;20040;-75
2023/10/25 10:24:49;;;;;;;2.73;0.80;;;23.40;89.90;;;;;;4847467;29;20475;-75
2023/10/25 10:27:40;;;;;;;8.00;1.42;;;23.30;89.30;;;;;;4843085;29;20034;-77
2023/10/25 10:30:29;;;;;;;5.10;1.17;;;23.20;90.20;;;;;;4843109;29;20033;-77
2023/10/25 10:32:56;;;;;;;4.97;1.25;;;23.00;88.80;;;;;;4826326;29;20502;-76
2023/10/25 10:35:22;;;;;;;5.53;1.70;;;23.00;90.00;;;;;;4842917;29;20053;-76
2023/10/25 10:37:57;;;;;;;3.20;1.30;;;23.20;90.00;;;;;;4842328;29;20038;-76
2023/10/25 10:40:23;;;;;;;4.03;1.00;;;23.20;89.20;;;;;;4842710;29;20037;-75
2023/10/25 10:42:50;;;;;;;1.88;1.15;;;23.30;89.60;;;;;;4849029;29;20180;-76
2023/10/25 10:45:18;;;;;;;6.80;1.05;;;23.20;89.00;;;;;;4842756;29;20030;-76
2023/10/25 10:47:43;;;;;;;9.10;1.88;;;23.10;90.00;;;;;;4842712;29;20022;-76
2023/10/25 10:50:14;;;;;;;4.40;1.15;;;23.20;88.70;;;;;;4842537;29;20058;-75
2023/10/25 10:52:41;;;;;;;18.50;1.65;;;23.20;88.40;;;;;;4842150;29;20436;-76
2023/10/25 10:55:13;;;;;;;9.93;1.13;;;23.20;86.90;;;;;;4842719;29;20200;-76
2023/10/25 10:57:42;;;;;;;;;;;23.20;87.90;;;;;;4842680;29;20030;-76
2023/10/25 11:00:10;;;;;;;4.32;0.95;;;23.10;87.70;;;;;;4842511;29;19908;-76
2023/10/25 11:02:53;;;;;;;6.75;1.08;;;23.20;89.50;;;;;;4847458;29;20032;-76
2023/10/25 11:05:27;;;;;;;3.30;1.52;;;23.20;90.30;;;;;;4847028;29;20099;-77
2023/10/25 11:07:54;;;;;;;2.47;1.27;;;23.30;87.30;;;;;;4841924;29;20467;-75
2023/10/25 11:10:19;;;;;;;5.70;2.03;;;23.40;88.60;;;;;;4841731;29;20141;-76
2023/10/25 11:12:46;;;;;;;3.45;0.75;;;23.50;87.90;;;;;;4842364;29;20455;-76
2023/10/25 11:15:12;;;;;;;3.40;1.15;;;23.20;88.70;;;;;;4841883;29;20034;-76
2023/10/25 11:17:39;;;;;;;5.25;1.50;;;23.30;88.90;;;;;;4842325;29;20094;-76
2023/10/25 11:20:06;;;;;;;3.85;1.60;;;23.40;88.00;;;;;;4841947;29;20025;-76
2023/10/25 11:22:35;;;;;;;3.25;1.55;;;23.30;85.10;;;;;;4841716;29;20064;-74
2023/10/25 11:25:09;;;;;;;2.65;1.35;;;23.30;86.10;;;;;;4842003;29;20030;-75
2023/10/25 11:27:36;;;;;;;5.85;1.67;;;23.30;87.90;;;;;;4842003;29;20026;-75
2023/10/25 11:30:10;;;;;;;6.72;1.58;;;23.40;84.90;;;;;;4841968;29;20037;-75
2023/10/25 11:32:36;;;;;;;2.25;1.13;;;23.30;86.30;;;;;;4841557;29;20033;-76
2023/10/25 11:35:04;;;;;;;7.65;1.50;;;23.40;85.90;;;;;;4841793;29;20623;-77
2023/10/25 11:37:43;;;;;;;3.78;1.00;;;23.40;85.90;;;;;;4842149;29;20105;-77
2023/10/25 11:40:09;;;;;;;3.92;1.08;;;23.40;85.00;;;;;;4830468;29;20502;-77
2023/10/25 11:42:36;;;;;;;1.70;0.80;;;23.30;85.30;;;;;;4841738;29;20109;-76
2023/10/25 11:45:05;;;;;;;16.55;1.80;;;23.30;85.00;;;;;;4841350;29;20041;-76
2023/10/25 11:47:32;;;;;;;5.18;0.88;;;23.40;85.00;;;;;;4841946;29;20075;-76
2023/10/25 11:49:59;;;;;;;3.13;1.00;;;23.60;85.10;;;;;;4849165;29;20044;-76
2023/10/25 11:52:27;;;;;;;3.83;0.70;;;23.70;83.20;;;;;;4845399;29;20105;-76
2023/10/25 11:54:56;;;;;;;2.22;1.00;;;23.70;83.90;;;;;;4841573;29;20038;-76
2023/10/25 11:57:27;;;;;;;7.40;1.08;;;23.70;84.90;;;;;;4840963;29;20442;-76
2023/10/25 11:59:53;;;;;;;2.33;1.05;;;23.70;83.00;;;;;;4841714;29;20382;-76
2023/10/25 12:02:24;;;;;;;1.60;1.00;;;23.70;82.60;;;;;;4824797;29;20038;-75
2023/10/25 12:04:54;;;;;;;6.60;1.10;;;23.70;83.10;;;;;;4832130;29;20026;-75
2023/10/25 12:07:21;;;;;;;6.35;1.33;;;23.50;84.70;;;;;;4838932;29;20398;-75
2023/10/25 12:09:52;;;;;;;1.45;0.82;;;23.60;83.40;;;;;;4841003;29;20046;-76
2023/10/25 12:12:19;;;;;;;5.23;1.70;;;23.60;84.10;;;;;;4841030;29;20049;-76
2023/10/25 12:14:45;;;;;;;4.22;1.00;;;23.70;83.40;;;;;;4841330;29;20129;-76
2023/10/25 12:17:11;;;;;;;6.90;1.63;;;23.70;84.00;;;;;;4841226;29;20026;-76
2023/10/25 12:19:39;;;;;;;1.80;0.88;;;23.80;82.30;;;;;;4840494;29;20482;-76
2023/10/25 12:22:10;;;;;;;4.38;1.02;;;23.90;82.60;;;;;;4841286;29;20034;-76
2023/10/25 12:24:37;;;;;;;3.78;1.00;;;23.90;83.10;;;;;;4824807;29;20149;-75
2023/10/25 12:27:07;;;;;;;2.00;0.80;;;23.90;81.40;;;;;;4840970;29;20026;-76
2023/10/25 12:29:33;;;;;;;2.88;1.10;;;24.00;82.40;;;;;;4841243;29;20044;-75
2023/10/25 12:32:00;;;;;;;3.65;1.00;;;24.00;82.10;;;;;;4841052;29;20029;-76
2023/10/25 12:34:26;;;;;;;2.97;0.90;;;24.00;81.50;;;;;;4841223;29;20121;-75
2023/10/25 12:36:52;;;;;;;8.75;1.20;;;24.00;81.60;;;;;;4840922;29;20026;-75
2023/10/25 12:39:18;;;;;;;2.13;0.60;;;24.00;80.70;;;;;;4840841;29;20151;-75
2023/10/25 12:41:45;;;;;;;2.10;0.80;;;24.00;80.70;;;;;;4840787;29;20105;-75
2023/10/25 12:44:12;;;;;;;4.25;0.80;;;24.00;81.60;;;;;;4841159;29;20076;-75
2023/10/25 12:46:39;;;;;;;2.90;0.98;;;23.90;80.40;;;;;;4840956;29;20475;-75
2023/10/25 12:49:05;;;;;;;2.95;1.13;;;23.90;81.40;;;;;;4840910;29;20049;-76
2023/10/25 12:51:31;;;;;;;2.33;1.00;;;23.90;82.30;;;;;;4841048;29;20033;-75